Time;durP1;ratioP1;P1;durP2;ratioP2;P2;SDS_P1;SDS_P2;PMS_P1;PMS_P2;Temp;Humidity;BMP_temperature;BMP_pressure;BME280_temperature;BME280_humidity;BME280_pressure;Samples;Min_cycle;Max_cycle;Signal;HPM_P1;HPM_P2
2021/11/30 00:00:00;;;;;;;7.18;4.40;;;;;;;;;;4966331;28;20118;-69
2021/11/30 00:02:45;;;;;;;9.35;5.13;;;;;;;;;;4941280;28;20038;-66
2021/11/30 00:05:30;;;;;;;9.20;4.60;;;;;;;;;;4933393;28;20035;-67
2021/11/30 00:08:16;;;;;;;8.27;5.38;;;;;;;;;;4934778;29;20019;-65
2021/11/30 00:11:02;;;;;;;9.48;4.60;;;;;;;;;;5008163;28;20188;-65
2021/11/30 00:13:47;;;;;;;10.65;5.60;;;;;;;;;;4974026;28;20453;-60
2021/11/30 00:16:32;;;;;;;9.75;4.68;;;;;;;;;;4942096;28;20150;-60
2021/11/30 00:19:18;;;;;;;10.15;5.35;;;;;;;;;;4946778;28;20043;-60
2021/11/30 00:22:03;;;;;;;11.85;8.32;;;;;;;;;;4942030;29;20032;-62
2021/11/30 00:24:50;;;;;;;10.15;6.10;;;;;;;;;;4952279;28;20042;-62
2021/11/30 00:27:35;;;;;;;9.98;5.30;;;;;;;;;;4948147;29;20576;-64
2021/11/30 00:30:21;;;;;;;7.43;4.40;;;;;;;;;;4941803;28;20043;-65
2021/11/30 00:33:07;;;;;;;8.57;4.32;;;;;;;;;;4938248;29;20036;-64
2021/11/30 00:35:53;;;;;;;10.70;5.55;;;;;;;;;;4937049;28;20035;-65
2021/11/30 00:38:38;;;;;;;9.55;4.72;;;;;;;;;;4948674;28;20043;-64
2021/11/30 00:41:23;;;;;;;7.63;4.18;;;;;;;;;;4946859;28;20057;-63
2021/11/30 00:44:09;;;;;;;6.65;3.58;;;;;;;;;;4946618;29;20038;-64
2021/11/30 00:46:55;;;;;;;11.32;4.90;;;;;;;;;;4946518;28;20031;-67
2021/11/30 00:49:41;;;;;;;7.35;4.47;;;;;;;;;;4945738;28;20039;-61
2021/11/30 00:52:26;;;;;;;8.30;3.83;;;;;;;;;;4940146;28;20375;-62
2021/11/30 00:55:11;;;;;;;5.57;3.60;;;;;;;;;;4929192;29;20093;-61
2021/11/30 00:57:57;;;;;;;5.88;3.92;;;;;;;;;;4947912;29;20422;-61
2021/11/30 01:00:43;;;;;;;6.57;3.47;;;;;;;;;;4933301;28;20114;-61
2021/11/30 01:03:28;;;;;;;5.93;3.63;;;;;;;;;;4942341;29;20031;-65
2021/11/30 01:06:15;;;;;;;5.40;3.65;;;;;;;;;;4933551;28;20093;-64
2021/11/30 01:09:00;;;;;;;6.05;3.20;;;;;;;;;;4930701;29;20034;-67
2021/11/30 01:11:45;;;;;;;6.38;3.10;;;;;;;;;;4943934;28;20047;-66
2021/11/30 01:14:31;;;;;;;4.55;3.38;;;;;;;;;;4971903;28;20039;-66
2021/11/30 01:17:16;;;;;;;6.88;3.65;;;;;;;;;;4941309;28;20024;-67
2021/11/30 01:20:03;;;;;;;9.85;3.47;;;;;;;;;;4940757;29;20039;-69
2021/11/30 01:22:49;;;;;;;6.07;3.58;;;;;;;;;;5015853;28;20517;-70
2021/11/30 01:25:34;;;;;;;6.68;3.13;;;;;;;;;;4941313;28;20121;-66
2021/11/30 01:28:20;;;;;;;4.70;3.15;;;;;;;;;;4946494;28;20228;-66
2021/11/30 01:31:05;;;;;;;4.38;3.03;;;;;;;;;;4937107;29;20118;-68
2021/11/30 01:33:50;;;;;;;4.30;2.97;;;;;;;;;;4929871;29;20124;-68
2021/11/30 01:36:35;;;;;;;4.90;2.67;;;;;;;;;;4934270;28;20027;-67
2021/11/30 01:39:21;;;;;;;5.85;3.42;;;;;;;;;;4945832;28;20602;-66
2021/11/30 01:42:07;;;;;;;7.15;2.67;;;;;;;;;;4942303;28;20035;-68
2021/11/30 01:44:57;;;;;;;4.18;2.97;;;;;;;;;;4933767;29;20062;-62
2021/11/30 01:47:58;;;;;;;5.18;2.80;;;;;;;;;;4946209;28;20027;-62
2021/11/30 01:50:44;;;;;;;7.80;2.95;;;;;;;;;;4946930;29;20039;-64
2021/11/30 01:53:29;;;;;;;6.68;2.88;;;;;;;;;;4928113;28;20044;-61
2021/11/30 01:56:15;;;;;;;8.68;3.03;;;;;;;;;;4942888;28;20394;-61
2021/11/30 01:59:00;;;;;;;3.80;2.65;;;;;;;;;;4945858;28;20070;-65
2021/11/30 02:01:45;;;;;;;4.22;2.47;;;;;;;;;;4947275;28;20035;-60
2021/11/30 02:04:30;;;;;;;6.05;2.65;;;;;;;;;;4918260;28;20559;-62
2021/11/30 02:07:16;;;;;;;6.97;2.75;;;;;;;;;;4946900;28;20049;-62
2021/11/30 02:10:02;;;;;;;10.43;2.72;;;;;;;;;;4945417;28;20375;-65
2021/11/30 02:12:48;;;;;;;5.40;2.90;;;;;;;;;;4939605;28;20121;-62
2021/11/30 02:15:40;;;;;;;5.63;2.95;;;;;;;;;;4979762;28;20435;-63
2021/11/30 02:18:25;;;;;;;6.47;3.33;;;;;;;;;;4959916;28;20386;-63
2021/11/30 02:21:11;;;;;;;8.43;2.88;;;;;;;;;;4951714;28;20500;-61
2021/11/30 02:24:00;;;;;;;7.07;3.00;;;;;;;;;;4949811;28;20069;-63
2021/11/30 02:26:45;;;;;;;4.50;2.40;;;;;;;;;;4966324;28;20026;-63
2021/11/30 02:29:30;;;;;;;2.63;2.15;;;;;;;;;;4950513;28;20110;-63
2021/11/30 02:32:16;;;;;;;3.78;1.80;;;;;;;;;;5003309;28;20497;-62
2021/11/30 02:35:01;;;;;;;8.77;2.50;;;;;;;;;;4976851;28;20038;-61
2021/11/30 02:37:50;;;;;;;5.32;2.35;;;;;;;;;;4952604;28;20034;-68
2021/11/30 02:40:36;;;;;;;6.30;2.05;;;;;;;;;;4947671;28;20055;-67
2021/11/30 02:43:21;;;;;;;7.13;2.05;;;;;;;;;;4942657;28;20107;-66
2021/11/30 02:46:07;;;;;;;4.05;1.80;;;;;;;;;;4945082;28;20110;-66
2021/11/30 02:48:52;;;;;;;5.75;2.47;;;;;;;;;;4954288;28;20469;-67
2021/11/30 02:51:39;;;;;;;4.28;1.73;;;;;;;;;;4964022;28;20027;-70
2021/11/30 02:54:24;;;;;;;6.25;2.13;;;;;;;;;;4949244;29;20027;-66
2021/11/30 02:57:11;;;;;;;4.28;2.13;;;;;;;;;;4955514;28;20114;-61
2021/11/30 02:59:56;;;;;;;3.75;1.70;;;;;;;;;;4954306;28;20506;-64
2021/11/30 03:02:41;;;;;;;4.38;1.80;;;;;;;;;;4954207;28;20023;-63
2021/11/30 03:05:26;;;;;;;3.35;1.80;;;;;;;;;;4948903;28;20053;-63
2021/11/30 03:08:12;;;;;;;3.65;1.83;;;;;;;;;;4955442;28;20034;-63
2021/11/30 03:10:57;;;;;;;4.90;1.90;;;;;;;;;;4966811;28;20169;-65
2021/11/30 03:13:42;;;;;;;4.78;2.03;;;;;;;;;;4954105;28;20037;-63
2021/11/30 03:16:28;;;;;;;4.45;1.70;;;;;;;;;;4954146;28;20482;-64
2021/11/30 03:19:15;;;;;;;3.85;1.75;;;;;;;;;;4948082;28;20027;-61
2021/11/30 03:22:01;;;;;;;3.88;1.90;;;;;;;;;;4954232;28;20109;-61
2021/11/30 03:24:46;;;;;;;6.72;2.00;;;;;;;;;;4955128;28;20169;-60
2021/11/30 03:27:31;;;;;;;3.13;1.70;;;;;;;;;;4958598;28;20413;-59
2021/11/30 03:30:20;;;;;;;12.80;3.05;;;;;;;;;;4954654;28;20029;-60
2021/11/30 03:36:09;;;;;;;7.90;2.72;;;;;;;;;;4955597;28;20035;-66
2021/11/30 03:38:55;;;;;;;6.63;2.92;;;;;;;;;;4947969;28;20031;-69
2021/11/30 03:41:41;;;;;;;5.00;2.22;;;;;;;;;;4950692;28;20061;-67
2021/11/30 03:44:27;;;;;;;6.18;2.20;;;;;;;;;;4954977;28;20034;-68
2021/11/30 03:47:13;;;;;;;5.03;2.20;;;;;;;;;;4953796;28;20516;-67
2021/11/30 03:49:58;;;;;;;6.10;2.92;;;;;;;;;;4954590;28;20035;-68
2021/11/30 03:52:43;;;;;;;7.65;2.10;;;;;;;;;;4953401;28;20031;-62
2021/11/30 03:55:28;;;;;;;4.35;1.90;;;;;;;;;;4954231;28;20427;-63
2021/11/30 03:58:14;;;;;;;5.43;1.75;;;;;;;;;;4952646;28;20099;-63
2021/11/30 04:00:59;;;;;;;6.30;2.13;;;;;;;;;;4954477;28;20123;-61
2021/11/30 04:03:45;;;;;;;2.97;1.67;;;;;;;;;;4952244;28;20103;-61
2021/11/30 04:06:30;;;;;;;2.72;1.77;;;;;;;;;;4968253;28;20171;-61
2021/11/30 04:09:16;;;;;;;6.45;2.13;;;;;;;;;;4953200;28;20242;-60
2021/11/30 04:12:02;;;;;;;3.25;1.73;;;;;;;;;;4955591;28;20070;-63
2021/11/30 04:14:47;;;;;;;7.72;2.58;;;;;;;;;;4953487;28;20159;-62
2021/11/30 04:17:33;;;;;;;6.28;2.13;;;;;;;;;;4953927;28;20405;-63
2021/11/30 04:20:19;;;;;;;4.90;1.90;;;;;;;;;;4945241;28;20580;-63
2021/11/30 04:23:05;;;;;;;3.70;2.03;;;;;;;;;;4949999;28;20061;-62
2021/11/30 04:25:50;;;;;;;4.00;1.55;;;;;;;;;;4953319;28;20046;-65
2021/11/30 04:28:37;;;;;;;5.28;2.28;;;;;;;;;;4981108;28;20530;-68
2021/11/30 04:31:23;;;;;;;5.97;2.20;;;;;;;;;;4954606;28;20030;-61
2021/11/30 04:34:08;;;;;;;4.47;2.10;;;;;;;;;;4968623;28;20140;-62
2021/11/30 04:36:54;;;;;;;3.28;1.50;;;;;;;;;;4953371;28;20177;-62
2021/11/30 04:39:39;;;;;;;3.70;1.65;;;;;;;;;;4950538;28;20074;-61
2021/11/30 04:42:27;;;;;;;5.85;2.42;;;;;;;;;;4939648;29;20023;-60
2021/11/30 04:45:45;;;;;;;4.00;2.00;;;;;;;;;;4940724;28;20023;-63
2021/11/30 04:48:32;;;;;;;5.00;2.20;;;;;;;;;;4948774;28;20513;-60
2021/11/30 04:51:18;;;;;;;4.57;2.15;;;;;;;;;;4946600;28;20100;-61
2021/11/30 04:54:04;;;;;;;4.20;2.20;;;;;;;;;;4942793;28;20034;-64
2021/11/30 04:56:50;;;;;;;7.15;2.10;;;;;;;;;;4953256;28;20022;-61
2021/11/30 04:59:35;;;;;;;5.13;2.40;;;;;;;;;;4990605;28;20504;-61
2021/11/30 05:02:20;;;;;;;4.55;2.50;;;;;;;;;;4930504;28;20027;-61
2021/11/30 05:05:06;;;;;;;6.18;2.35;;;;;;;;;;4953621;28;20088;-61
2021/11/30 05:07:51;;;;;;;4.15;2.55;;;;;;;;;;4939263;28;20030;-60
2021/11/30 05:10:36;;;;;;;3.00;2.13;;;;;;;;;;4950182;28;20171;-60
2021/11/30 05:13:21;;;;;;;6.43;2.20;;;;;;;;;;4953134;28;20509;-62
2021/11/30 05:16:07;;;;;;;5.93;2.03;;;;;;;;;;4950150;28;20031;-60
2021/11/30 05:18:52;;;;;;;8.38;2.28;;;;;;;;;;4945713;28;20095;-62
2021/11/30 05:21:37;;;;;;;3.78;2.35;;;;;;;;;;4948167;28;20063;-61
2021/11/30 05:24:22;;;;;;;5.20;2.22;;;;;;;;;;4936344;29;20039;-70
2021/11/30 05:27:08;;;;;;;7.57;3.00;;;;;;;;;;4946563;28;20117;-70
2021/11/30 05:29:53;;;;;;;8.45;2.40;;;;;;;;;;4953193;28;20076;-68
2021/11/30 05:32:42;;;;;;;5.22;2.45;;;;;;;;;;4949074;28;20044;-69
2021/11/30 05:35:27;;;;;;;5.78;2.72;;;;;;;;;;4967260;28;20037;-68
2021/11/30 05:38:12;;;;;;;6.28;2.58;;;;;;;;;;4948367;28;20536;-66
2021/11/30 05:40:58;;;;;;;6.40;3.03;;;;;;;;;;4952642;28;20053;-66
2021/11/30 05:43:43;;;;;;;6.60;3.00;;;;;;;;;;4954305;28;20552;-68
2021/11/30 05:46:30;;;;;;;5.10;2.63;;;;;;;;;;4950722;28;20373;-65
2021/11/30 05:49:16;;;;;;;8.07;3.05;;;;;;;;;;4966355;28;20419;-64
2021/11/30 05:52:01;;;;;;;6.75;3.72;;;;;;;;;;4938238;28;20062;-63
2021/11/30 05:54:47;;;;;;;8.65;3.45;;;;;;;;;;4944885;28;20035;-62
2021/11/30 05:57:32;;;;;;;8.43;3.00;;;;;;;;;;4945940;28;20039;-64
2021/11/30 06:00:18;;;;;;;7.45;2.97;;;;;;;;;;4939422;28;20378;-68
2021/11/30 06:03:27;;;;;;;6.78;2.80;;;;;;;;;;4950672;28;20023;-63
2021/11/30 06:06:12;;;;;;;5.50;3.13;;;;;;;;;;4952863;28;20045;-59
2021/11/30 06:08:58;;;;;;;8.88;3.28;;;;;;;;;;4951550;28;20034;-62
2021/11/30 06:11:45;;;;;;;10.43;3.67;;;;;;;;;;4952514;28;20055;-59
2021/11/30 06:14:30;;;;;;;6.50;3.20;;;;;;;;;;4950914;28;20444;-60
2021/11/30 06:17:15;;;;;;;6.97;3.60;;;;;;;;;;4950216;28;20434;-60
2021/11/30 06:20:01;;;;;;;6.15;3.00;;;;;;;;;;4947622;28;20059;-61
2021/11/30 06:22:46;;;;;;;8.25;3.42;;;;;;;;;;4948351;28;20110;-64
2021/11/30 06:25:32;;;;;;;6.32;3.35;;;;;;;;;;4949402;28;20523;-63
2021/11/30 06:28:17;;;;;;;8.45;3.35;;;;;;;;;;4947746;28;20031;-62
2021/11/30 06:31:03;;;;;;;9.32;3.50;;;;;;;;;;4948315;28;20145;-61
2021/11/30 06:33:48;;;;;;;8.35;3.90;;;;;;;;;;4954114;28;20100;-62
2021/11/30 06:36:33;;;;;;;8.13;3.50;;;;;;;;;;4946806;28;20030;-67
2021/11/30 06:39:19;;;;;;;6.53;3.80;;;;;;;;;;4952470;28;20027;-63
2021/11/30 06:42:04;;;;;;;5.75;3.47;;;;;;;;;;4951724;28;20065;-62
2021/11/30 06:44:50;;;;;;;7.38;4.05;;;;;;;;;;4953174;28;20066;-63
2021/11/30 06:47:36;;;;;;;7.25;4.15;;;;;;;;;;4955680;28;20133;-63
2021/11/30 06:50:21;;;;;;;6.50;3.80;;;;;;;;;;4953671;28;20070;-61
2021/11/30 06:53:07;;;;;;;11.52;4.13;;;;;;;;;;4959054;28;20386;-61
2021/11/30 06:55:52;;;;;;;31.58;18.77;;;;;;;;;;4943565;28;20042;-63
2021/11/30 06:58:37;;;;;;;15.48;9.65;;;;;;;;;;4954998;28;20388;-60
2021/11/30 07:01:22;;;;;;;8.93;3.95;;;;;;;;;;4946349;28;20041;-60
2021/11/30 07:04:08;;;;;;;4.93;3.20;;;;;;;;;;4953883;28;20359;-63
2021/11/30 07:15:27;;;;;;;6.40;3.58;;;;;;;;;;5020458;28;20040;-65
2021/11/30 07:18:14;;;;;;;5.00;3.08;;;;;;;;;;5020316;28;20124;-66
2021/11/30 07:21:00;;;;;;;6.70;3.08;;;;;;;;;;5028226;28;20037;-67
2021/11/30 07:23:45;;;;;;;7.35;3.50;;;;;;;;;;5027014;28;20172;-65
2021/11/30 07:26:31;;;;;;;5.68;2.90;;;;;;;;;;5032617;28;20025;-66
2021/11/30 07:29:16;;;;;;;4.25;2.38;;;;;;;;;;5030316;28;20088;-66
2021/11/30 07:32:01;;;;;;;4.97;2.40;;;;;;;;;;5024639;28;20076;-67
2021/11/30 07:34:47;;;;;;;5.05;2.85;;;;;;;;;;5022286;28;20036;-64
2021/11/30 07:37:33;;;;;;;5.32;2.67;;;;;;;;;;5029443;28;20072;-62
2021/11/30 07:40:19;;;;;;;36.38;19.98;;;;;;;;;;5026505;28;20358;-63
2021/11/30 07:43:04;;;;;;;8.63;4.18;;;;;;;;;;5019855;28;20077;-64
2021/11/30 07:45:49;;;;;;;7.13;2.42;;;;;;;;;;5011245;28;20033;-63
2021/11/30 07:48:35;;;;;;;6.65;2.72;;;;;;;;;;5023770;28;20040;-66
2021/11/30 07:51:20;;;;;;;4.78;2.58;;;;;;;;;;5010273;28;20477;-62
2021/11/30 07:54:06;;;;;;;6.68;3.15;;;;;;;;;;5029426;28;20092;-74
2021/11/30 07:56:51;;;;;;;4.22;1.90;;;;;;;;;;5024656;28;20400;-64
2021/11/30 07:59:38;;;;;;;3.72;2.00;;;;;;;;;;5023574;28;20091;-62
2021/11/30 08:02:23;;;;;;;5.30;2.10;;;;;;;;;;5036466;28;20440;-63
2021/11/30 08:05:09;;;;;;;5.95;1.95;;;;;;;;;;5024604;28;20416;-66
2021/11/30 08:07:54;;;;;;;4.32;2.20;;;;;;;;;;5015331;28;20033;-64
2021/11/30 08:10:39;;;;;;;5.55;2.15;;;;;;;;;;5024387;28;20302;-68
2021/11/30 08:13:25;;;;;;;4.75;2.05;;;;;;;;;;4950353;28;20525;-60
2021/11/30 08:16:10;;;;;;;5.13;2.28;;;;;;;;;;4954240;28;20175;-61
2021/11/30 08:18:55;;;;;;;4.70;1.98;;;;;;;;;;4950817;28;20033;-60
2021/11/30 08:21:40;;;;;;;6.80;2.50;;;;;;;;;;4950096;28;20035;-61
2021/11/30 08:24:26;;;;;;;5.07;1.95;;;;;;;;;;4943869;28;20022;-59
2021/11/30 08:27:12;;;;;;;5.25;2.33;;;;;;;;;;4949633;28;20035;-61
2021/11/30 08:29:57;;;;;;;3.70;2.10;;;;;;;;;;4947632;28;20085;-67
2021/11/30 08:32:43;;;;;;;3.25;1.88;;;;;;;;;;4967270;28;20597;-70
2021/11/30 08:35:28;;;;;;;4.32;2.50;;;;;;;;;;4950823;28;20065;-70
2021/11/30 08:38:13;;;;;;;3.55;2.03;;;;;;;;;;4934965;29;20073;-70
2021/11/30 08:40:59;;;;;;;6.00;1.90;;;;;;;;;;4939319;28;20053;-65
2021/11/30 08:43:44;;;;;;;5.03;2.38;;;;;;;;;;4965432;28;20027;-67
2021/11/30 08:46:29;;;;;;;2.75;1.58;;;;;;;;;;4951725;28;20035;-67
2021/11/30 08:49:15;;;;;;;3.03;1.70;;;;;;;;;;4948473;28;20031;-68
2021/11/30 08:52:00;;;;;;;3.33;1.88;;;;;;;;;;4952379;28;20034;-70
2021/11/30 08:54:46;;;;;;;3.53;1.85;;;;;;;;;;4959062;28;20043;-68
2021/11/30 08:57:31;;;;;;;3.85;1.92;;;;;;;;;;4960375;28;20038;-66
2021/11/30 09:00:25;;;;;;;4.18;1.80;;;;;;;;;;4946840;28;20096;-66
2021/11/30 09:03:10;;;;;;;3.90;2.28;;;;;;;;;;4947448;28;20126;-66
2021/11/30 09:05:55;;;;;;;3.70;1.85;;;;;;;;;;4951365;28;20066;-64
2021/11/30 09:08:41;;;;;;;3.45;1.77;;;;;;;;;;4945431;28;20116;-67
2021/11/30 09:11:27;;;;;;;4.63;1.70;;;;;;;;;;4951386;28;20161;-62
2021/11/30 09:14:15;;;;;;;2.95;1.88;;;;;;;;;;4941937;28;20027;-63
2021/11/30 09:17:01;;;;;;;3.83;2.00;;;;;;;;;;4952657;28;20511;-63
2021/11/30 09:19:46;;;;;;;4.60;1.92;;;;;;;;;;4941446;28;20047;-63
2021/11/30 09:22:32;;;;;;;3.30;2.17;;;;;;;;;;4951763;28;20169;-59
2021/11/30 09:25:17;;;;;;;2.22;1.70;;;;;;;;;;4946808;28;20026;-64
2021/11/30 09:28:03;;;;;;;3.13;1.77;;;;;;;;;;4948824;28;20098;-63
2021/11/30 09:30:49;;;;;;;3.28;1.65;;;;;;;;;;4952058;28;20058;-63
2021/11/30 09:33:36;;;;;;;1.95;1.50;;;;;;;;;;4952894;28;20037;-62
2021/11/30 09:36:21;;;;;;;3.45;1.83;;;;;;;;;;4950968;28;20027;-62
2021/11/30 09:39:07;;;;;;;2.05;1.52;;;;;;;;;;4936072;29;20031;-64
2021/11/30 09:41:52;;;;;;;5.85;1.60;;;;;;;;;;4942493;28;20043;-68
2021/11/30 09:44:39;;;;;;;5.75;1.83;;;;;;;;;;4964832;28;20099;-60
2021/11/30 09:47:24;;;;;;;2.40;1.88;;;;;;;;;;4951636;28;20030;-60
2021/11/30 09:50:12;;;;;;;4.22;1.58;;;;;;;;;;4949248;28;20119;-64
2021/11/30 09:52:57;;;;;;;2.55;1.58;;;;;;;;;;4952588;28;20033;-60
2021/11/30 09:55:43;;;;;;;2.47;1.50;;;;;;;;;;4943087;29;20112;-62
2021/11/30 09:58:29;;;;;;;4.05;1.50;;;;;;;;;;4941994;28;20042;-60
2021/11/30 10:01:15;;;;;;;3.70;1.40;;;;;;;;;;4942911;29;20142;-58
2021/11/30 10:04:03;;;;;;;2.72;1.30;;;;;;;;;;4952573;28;20168;-60
2021/11/30 10:06:48;;;;;;;11.02;5.60;;;;;;;;;;4936600;28;20053;-60
2021/11/30 10:09:33;;;;;;;1.88;1.10;;;;;;;;;;4950304;28;20041;-61
2021/11/30 10:12:19;;;;;;;3.65;1.00;;;;;;;;;;4947250;28;20058;-62
2021/11/30 10:15:08;;;;;;;4.68;1.20;;;;;;;;;;4943617;28;20034;-68
2021/11/30 10:17:53;;;;;;;;;;;;;;;;;;4948429;28;20035;-64
2021/11/30 10:20:39;;;;;;;4.80;1.58;;;;;;;;;;4964598;28;19918;-60
2021/11/30 10:23:30;;;;;;;3.80;1.33;;;;;;;;;;4946869;28;20046;-63
2021/11/30 10:26:18;;;;;;;2.55;1.30;;;;;;;;;;4948592;28;20023;-62
2021/11/30 10:29:04;;;;;;;3.00;1.20;;;;;;;;;;4945948;28;20417;-60
2021/11/30 10:31:51;;;;;;;2.35;1.10;;;;;;;;;;4948238;28;20046;-62
2021/11/30 10:34:36;;;;;;;1.50;1.00;;;;;;;;;;4945907;28;20034;-63
2021/11/30 10:37:22;;;;;;;1.33;0.88;;;;;;;;;;4951358;28;20033;-62
2021/11/30 10:40:09;;;;;;;2.05;0.90;;;;;;;;;;4951547;28;20050;-64
2021/11/30 10:42:56;;;;;;;2.50;0.95;;;;;;;;;;4955065;28;20617;-63
2021/11/30 10:45:46;;;;;;;3.50;1.00;;;;;;;;;;4951652;28;20066;-62
2021/11/30 10:48:33;;;;;;;3.22;1.10;;;;;;;;;;4951316;28;20038;-60
2021/11/30 10:51:18;;;;;;;3.67;1.83;;;;;;;;;;4952495;28;20509;-62
2021/11/30 10:54:03;;;;;;;3.92;1.83;;;;;;;;;;4947428;28;20035;-61
2021/11/30 10:57:01;;;;;;;2.00;1.10;;;;;;;;;;4949209;28;20492;-58
2021/11/30 10:59:47;;;;;;;2.90;0.90;;;;;;;;;;4948350;28;20050;-66
2021/11/30 11:02:49;;;;;;;3.75;0.80;;;;;;;;;;4949929;28;20031;-66
2021/11/30 11:05:39;;;;;;;0.98;0.80;;;;;;;;;;4942879;28;20506;-64
2021/11/30 11:08:24;;;;;;;0.98;0.80;;;;;;;;;;4963770;28;20468;-65
2021/11/30 11:11:11;;;;;;;1.55;0.90;;;;;;;;;;4950649;28;20520;-67
2021/11/30 11:13:56;;;;;;;2.25;1.08;;;;;;;;;;4941878;28;20023;-70
2021/11/30 11:16:42;;;;;;;1.95;1.10;;;;;;;;;;4951613;28;20096;-71
2021/11/30 11:19:44;;;;;;;3.10;1.05;;;;;;;;;;4966534;28;20067;-67
2021/11/30 11:22:30;;;;;;;2.13;1.10;;;;;;;;;;4948004;28;20047;-68
2021/11/30 11:25:15;;;;;;;1.70;0.85;;;;;;;;;;4954420;28;20115;-69
2021/11/30 11:28:03;;;;;;;1.63;0.90;;;;;;;;;;4952098;28;20477;-68
2021/11/30 11:30:49;;;;;;;3.05;1.27;;;;;;;;;;4947673;28;20075;-68
2021/11/30 11:33:35;;;;;;;1.70;0.90;;;;;;;;;;4954061;28;20038;-68
2021/11/30 11:36:21;;;;;;;1.52;0.80;;;;;;;;;;4950579;28;20033;-61
2021/11/30 11:39:06;;;;;;;3.03;0.90;;;;;;;;;;4950806;28;20039;-63
2021/11/30 11:41:53;;;;;;;1.77;0.85;;;;;;;;;;4950244;28;20039;-63
2021/11/30 11:44:39;;;;;;;1.13;0.82;;;;;;;;;;4950084;28;20043;-61
2021/11/30 11:47:25;;;;;;;1.33;0.80;;;;;;;;;;4951048;28;20034;-61
2021/11/30 11:50:11;;;;;;;3.60;1.00;;;;;;;;;;4953026;28;20125;-66
2021/11/30 11:52:59;;;;;;;1.75;0.98;;;;;;;;;;4946080;28;20039;-62
2021/11/30 11:56:05;;;;;;;3.63;1.40;;;;;;;;;;4962603;28;20038;-63
2021/11/30 11:59:08;;;;;;;2.30;0.80;;;;;;;;;;4953493;28;20031;-62
2021/11/30 12:02:12;;;;;;;1.38;1.00;;;;;;;;;;4955043;28;20043;-66
2021/11/30 12:04:58;;;;;;;3.05;0.90;;;;;;;;;;4942376;28;20024;-62
2021/11/30 12:07:54;;;;;;;2.03;0.98;;;;;;;;;;4938597;28;20059;-63
2021/11/30 12:10:39;;;;;;;4.97;2.17;;;;;;;;;;4956713;28;20049;-72
2021/11/30 12:13:25;;;;;;;4.45;1.00;;;;;;;;;;4952117;28;20100;-63
2021/11/30 12:16:10;;;;;;;3.58;1.20;;;;;;;;;;4945510;28;20117;-68
2021/11/30 12:18:57;;;;;;;3.47;1.00;;;;;;;;;;4946321;28;20035;-64
2021/11/30 12:21:42;;;;;;;1.38;0.82;;;;;;;;;;4946915;28;20034;-65
2021/11/30 12:24:38;;;;;;;2.75;1.00;;;;;;;;;;4938261;28;20525;-65
2021/11/30 12:27:23;;;;;;;1.10;0.98;;;;;;;;;;4944359;28;20113;-64
2021/11/30 12:30:28;;;;;;;2.75;0.98;;;;;;;;;;4949820;28;20027;-61
2021/11/30 12:33:16;;;;;;;0.88;0.70;;;;;;;;;;4944924;28;20437;-61
2021/11/30 12:36:02;;;;;;;2.80;1.02;;;;;;;;;;4951255;28;20031;-63
2021/11/30 12:38:50;;;;;;;3.22;1.20;;;;;;;;;;4948471;28;20465;-60
2021/11/30 12:41:38;;;;;;;1.10;0.80;;;;;;;;;;4952548;28;20286;-65
2021/11/30 12:44:23;;;;;;;1.30;1.00;;;;;;;;;;4942500;28;20034;-61
2021/11/30 12:47:19;;;;;;;5.45;1.95;;;;;;;;;;4950947;28;20390;-65
2021/11/30 12:50:19;;;;;;;2.58;1.05;;;;;;;;;;4962877;28;20050;-59
2021/11/30 12:53:04;;;;;;;2.65;0.80;;;;;;;;;;4937335;28;20440;-61
2021/11/30 12:55:54;;;;;;;3.95;0.85;;;;;;;;;;4978050;28;20059;-60
2021/11/30 12:58:46;;;;;;;4.40;0.90;;;;;;;;;;4949774;28;20139;-59
2021/11/30 13:01:31;;;;;;;1.33;0.80;;;;;;;;;;4948613;28;20043;-59
2021/11/30 13:04:29;;;;;;;2.28;1.58;;;;;;;;;;4955424;28;20098;-68
2021/11/30 13:07:19;;;;;;;1.52;1.17;;;;;;;;;;4956759;28;20039;-66
2021/11/30 13:10:05;;;;;;;1.45;0.90;;;;;;;;;;4946499;28;20482;-65
2021/11/30 13:12:52;;;;;;;4.28;0.98;;;;;;;;;;4980112;28;20045;-66
2021/11/30 13:15:42;;;;;;;2.22;0.70;;;;;;;;;;4946601;28;20031;-66
2021/11/30 13:18:27;;;;;;;;;;;;;;;;;;4949604;28;20374;-71
2021/11/30 13:21:12;;;;;;;3.78;1.60;;;;;;;;;;4945488;28;19919;-68
2021/11/30 13:24:02;;;;;;;3.85;1.30;;;;;;;;;;4951349;28;20474;-73
2021/11/30 13:26:47;;;;;;;;;;;;;;;;;;4940215;28;20027;-63
2021/11/30 13:29:33;;;;;;;1.90;0.90;;;;;;;;;;4970215;28;20280;-67
2021/11/30 13:32:23;;;;;;;3.05;1.02;;;;;;;;;;4955156;28;20022;-62
2021/11/30 13:35:09;;;;;;;4.35;1.17;;;;;;;;;;4948178;28;20053;-60
2021/11/30 13:37:54;;;;;;;1.50;1.05;;;;;;;;;;4948598;28;20031;-65
2021/11/30 13:40:45;;;;;;;1.05;0.77;;;;;;;;;;4951774;28;20073;-67
2021/11/30 13:43:32;;;;;;;0.95;0.80;;;;;;;;;;4951572;28;20077;-61
2021/11/30 13:46:18;;;;;;;5.07;1.02;;;;;;;;;;4951524;28;20034;-58
2021/11/30 13:49:05;;;;;;;3.50;0.85;;;;;;;;;;4938528;28;20022;-62
2021/11/30 13:51:51;;;;;;;1.85;0.93;;;;;;;;;;4949845;28;20366;-59
2021/11/30 13:54:40;;;;;;;2.60;0.80;;;;;;;;;;4951285;28;20133;-61
2021/11/30 13:57:27;;;;;;;5.30;2.25;;;;;;;;;;4952614;28;20393;-61
2021/11/30 14:00:15;;;;;;;1.20;0.88;;;;;;;;;;4952643;28;20042;-62
2021/11/30 14:03:00;;;;;;;2.70;0.90;;;;;;;;;;5021856;28;20113;-65
2021/11/30 14:05:45;;;;;;;1.42;1.15;;;;;;;;;;4945802;28;20371;-67
2021/11/30 14:08:31;;;;;;;2.53;0.90;;;;;;;;;;4951342;28;20457;-66
2021/11/30 14:11:16;;;;;;;1.38;0.88;;;;;;;;;;4951270;28;20047;-67
2021/11/30 14:14:02;;;;;;;3.05;0.90;;;;;;;;;;4952357;28;20042;-69
2021/11/30 14:16:55;;;;;;;3.30;1.30;;;;;;;;;;4965030;28;20124;-68
2021/11/30 14:19:42;;;;;;;1.60;0.80;;;;;;;;;;4952553;28;20023;-62
2021/11/30 14:22:37;;;;;;;1.13;0.80;;;;;;;;;;4949816;28;20496;-62
2021/11/30 14:25:24;;;;;;;1.73;1.05;;;;;;;;;;5016861;28;20038;-65
2021/11/30 14:28:12;;;;;;;1.88;0.70;;;;;;;;;;4947974;28;20035;-67
2021/11/30 14:30:57;;;;;;;1.95;0.85;;;;;;;;;;4950945;28;20393;-63
2021/11/30 14:33:42;;;;;;;2.10;1.52;;;;;;;;;;4946958;28;20031;-63
2021/11/30 14:36:28;;;;;;;0.70;0.70;;;;;;;;;;4953476;28;20272;-61
2021/11/30 14:39:27;;;;;;;1.38;0.90;;;;;;;;;;4946728;28;20053;-65
2021/11/30 14:42:32;;;;;;;2.33;1.00;;;;;;;;;;4953705;28;20042;-65
2021/11/30 14:45:17;;;;;;;1.35;0.80;;;;;;;;;;4966660;28;20390;-64
2021/11/30 14:48:15;;;;;;;1.85;1.00;;;;;;;;;;4953683;28;20030;-63
2021/11/30 14:51:03;;;;;;;1.20;0.95;;;;;;;;;;4952201;28;20125;-66
2021/11/30 14:53:50;;;;;;;1.88;1.27;;;;;;;;;;4939803;28;20035;-62
2021/11/30 14:56:43;;;;;;;12.60;3.72;;;;;;;;;;4945390;28;20042;-60
2021/11/30 14:59:32;;;;;;;2.40;1.08;;;;;;;;;;4953891;28;20023;-60
2021/11/30 15:02:24;;;;;;;1.50;0.80;;;;;;;;;;4949510;28;20054;-61
2021/11/30 15:05:19;;;;;;;1.50;0.90;;;;;;;;;;4951808;28;20027;-60
2021/11/30 15:08:23;;;;;;;0.60;0.60;;;;;;;;;;4949852;28;20035;-59
2021/11/30 15:11:10;;;;;;;2.75;0.90;;;;;;;;;;4986376;28;20129;-60
2021/11/30 15:14:15;;;;;;;0.68;0.65;;;;;;;;;;4953500;28;20591;-63
2021/11/30 15:17:06;;;;;;;0.98;0.80;;;;;;;;;;4956706;28;20041;-62
2021/11/30 15:19:52;;;;;;;6.60;1.20;;;;;;;;;;4934396;28;20494;-62
2021/11/30 15:22:38;;;;;;;3.15;0.88;;;;;;;;;;4962356;28;20042;-61
2021/11/30 15:25:23;;;;;;;0.98;0.70;;;;;;;;;;4952587;28;20106;-64
2021/11/30 15:28:08;;;;;;;3.13;2.35;;;;;;;;;;4953011;28;20034;-64
2021/11/30 15:30:54;;;;;;;3.33;0.90;;;;;;;;;;4978686;28;20093;-63
2021/11/30 15:33:40;;;;;;;2.08;0.90;;;;;;;;;;4949331;28;20040;-68
2021/11/30 15:36:26;;;;;;;0.75;0.70;;;;;;;;;;4954124;28;20065;-68
2021/11/30 15:39:14;;;;;;;2.67;0.70;;;;;;;;;;4956684;28;20030;-68
2021/11/30 15:42:00;;;;;;;1.30;0.70;;;;;;;;;;4944181;28;20102;-70
2021/11/30 15:44:47;;;;;;;2.55;0.90;;;;;;;;;;4953422;28;20481;-65
2021/11/30 15:47:32;;;;;;;2.13;0.80;;;;;;;;;;4953422;28;20034;-65
2021/11/30 15:50:17;;;;;;;0.73;0.70;;;;;;;;;;4952748;28;20114;-62
2021/11/30 15:53:02;;;;;;;11.65;6.72;;;;;;;;;;4945838;28;20129;-58
2021/11/30 15:58:52;;;;;;;1.15;0.90;;;;;;;;;;4962372;28;20030;-57
2021/11/30 16:01:37;;;;;;;0.60;0.60;;;;;;;;;;4957190;28;20125;-59
2021/11/30 16:04:24;;;;;;;1.27;0.80;;;;;;;;;;4956492;28;20353;-57
2021/11/30 16:07:10;;;;;;;0.70;0.70;;;;;;;;;;4951448;28;20148;-63
2021/11/30 16:09:55;;;;;;;3.33;0.60;;;;;;;;;;4954173;28;20046;-69
2021/11/30 16:12:40;;;;;;;1.90;0.90;;;;;;;;;;4947585;28;20049;-62
2021/11/30 16:15:26;;;;;;;1.08;0.90;;;;;;;;;;4989973;28;20051;-63
2021/11/30 16:18:11;;;;;;;1.48;0.90;;;;;;;;;;4947966;28;20034;-63
2021/11/30 16:20:56;;;;;;;1.10;0.80;;;;;;;;;;4953932;28;20038;-62
2021/11/30 16:23:42;;;;;;;2.08;0.77;;;;;;;;;;4946171;28;20023;-62
2021/11/30 16:26:27;;;;;;;1.08;0.70;;;;;;;;;;4952904;28;20030;-63
2021/11/30 16:29:12;;;;;;;2.03;0.80;;;;;;;;;;4953930;28;20026;-61
2021/11/30 16:31:57;;;;;;;1.27;0.80;;;;;;;;;;4958187;28;20022;-59
2021/11/30 16:34:44;;;;;;;3.17;0.90;;;;;;;;;;4939668;28;20678;-60
2021/11/30 16:37:29;;;;;;;2.13;0.90;;;;;;;;;;4949442;28;20374;-59
2021/11/30 16:40:14;;;;;;;1.48;1.08;;;;;;;;;;4947660;28;20031;-60
2021/11/30 16:42:59;;;;;;;2.60;1.55;;;;;;;;;;4947133;28;20395;-60
2021/11/30 16:45:45;;;;;;;3.67;1.05;;;;;;;;;;4952616;28;20027;-61
2021/11/30 16:48:30;;;;;;;4.95;1.00;;;;;;;;;;4952186;28;20574;-69
2021/11/30 16:51:16;;;;;;;4.15;0.90;;;;;;;;;;5004918;28;20119;-69
2021/11/30 16:54:02;;;;;;;1.58;1.10;;;;;;;;;;4952454;28;20179;-67